Time;durP1;ratioP1;P1;durP2;ratioP2;P2;SDS_P1;SDS_P2;PMS_P1;PMS_P2;Temp;Humidity;BMP_temperature;BMP_pressure;BME280_temperature;BME280_humidity;BME280_pressure;Samples;Min_cycle;Max_cycle;Signal;HPM_P1;HPM_P2
2022/01/17 00:04:36;;;;;;;23.47;14.63;;;5.20;95.90;;;;;;21088911;28;20277;-64
2022/01/17 00:14:42;;;;;;;26.63;16.67;;;5.30;95.90;;;;;;21088270;28;20252;-62
2022/01/17 00:24:43;;;;;;;25.17;15.67;;;5.40;95.90;;;;;;21087761;28;20235;-63
2022/01/17 00:34:46;;;;;;;29.80;16.83;;;5.40;95.90;;;;;;21086867;28;20210;-62
2022/01/17 00:44:48;;;;;;;26.00;16.57;;;5.50;95.80;;;;;;21085983;28;20230;-64
2022/01/17 00:54:50;;;;;;;26.03;15.90;;;5.60;95.60;;;;;;21084837;28;20616;-62
2022/01/17 01:04:51;;;;;;;23.67;15.33;;;5.50;95.50;;;;;;21084425;28;20218;-63
2022/01/17 01:14:53;;;;;;;24.07;15.87;;;5.50;95.50;;;;;;21083677;28;20205;-62
2022/01/17 01:51:09;;;;;;;23.73;14.67;;;5.70;95.50;;;;;;20985178;28;20562;-67
2022/01/17 02:01:11;;;;;;;23.93;14.80;;;5.70;95.60;;;;;;20983589;28;20212;-66
2022/01/17 02:11:13;;;;;;;21.80;13.53;;;5.70;95.50;;;;;;20982957;28;20216;-70
2022/01/17 02:31:18;;;;;;;21.87;12.90;;;5.60;95.70;;;;;;20980914;28;20211;-70
2022/01/17 02:41:19;;;;;;;18.93;12.57;;;5.50;95.80;;;;;;20979849;28;20203;-72
2022/01/17 02:51:21;;;;;;;20.83;12.90;;;5.60;96.10;;;;;;20979341;28;20583;-70
2022/01/17 03:01:26;;;;;;;20.23;12.70;;;5.40;96.10;;;;;;20929770;28;20204;-68
2022/01/17 03:11:28;;;;;;;19.33;12.20;;;5.30;96.40;;;;;;20923240;28;20204;-63
2022/01/17 03:21:32;;;;;;;16.50;10.87;;;5.20;96.50;;;;;;20891116;28;20259;-69
2022/01/17 03:31:34;;;;;;;18.70;11.50;;;5.20;96.60;;;;;;20837314;28;20318;-69
2022/01/17 03:41:36;;;;;;;20.10;12.50;;;5.20;96.60;;;;;;20838285;28;20290;-71
2022/01/17 03:51:38;;;;;;;21.57;13.40;;;5.30;96.80;;;;;;20838029;28;20231;-70
2022/01/17 04:01:40;;;;;;;21.50;13.07;;;5.30;96.60;;;;;;20836751;28;20283;-71
2022/01/17 04:11:42;;;;;;;22.20;14.13;;;5.40;96.60;;;;;;20835327;28;20200;-63
2022/01/17 04:21:47;;;;;;;24.60;14.07;;;5.40;96.50;;;;;;20835735;28;20240;-67
2022/01/17 04:31:48;;;;;;;23.50;14.07;;;5.40;96.40;;;;;;20834453;28;20212;-64
2022/01/17 04:41:50;;;;;;;24.20;14.87;;;5.50;96.40;;;;;;20833563;28;20236;-66
2022/01/17 04:51:54;;;;;;;23.80;14.23;;;;;;;;;;20833271;28;20201;-64
2022/01/17 05:01:56;;;;;;;23.03;14.60;;;5.60;96.10;;;;;;20832689;28;20283;-69
2022/01/17 05:11:58;;;;;;;22.63;13.90;;;5.60;96.10;;;;;;20837830;28;20252;-62
2022/01/17 05:22:00;;;;;;;21.37;12.97;;;5.60;96.10;;;;;;20840172;28;20229;-61
2022/01/17 05:32:02;;;;;;;22.90;13.23;;;5.60;96.10;;;;;;20830997;28;20259;-70
2022/01/17 05:42:50;;;;;;;19.00;11.67;;;5.50;96.10;;;;;;21152547;27;20558;-67
2022/01/17 05:52:52;;;;;;;19.33;12.03;;;5.50;96.30;;;;;;21151344;28;20695;-63
2022/01/17 06:02:53;;;;;;;18.60;10.90;;;5.60;96.30;;;;;;21148257;28;20732;-62
2022/01/17 06:12:56;;;;;;;15.83;9.87;;;5.60;96.20;;;;;;21148925;28;20263;-61
2022/01/17 06:22:58;;;;;;;14.73;9.73;;;5.70;96.20;;;;;;21149274;28;20214;-62
2022/01/17 06:32:59;;;;;;;14.20;9.17;;;5.80;96.10;;;;;;21147437;28;20202;-63
2022/01/17 06:43:01;;;;;;;16.13;10.63;;;5.80;95.80;;;;;;21162738;28;20256;-61
2022/01/17 06:53:03;;;;;;;14.97;9.40;;;5.90;96.00;;;;;;21096473;28;20215;-63
2022/01/17 07:03:05;;;;;;;13.30;8.93;;;5.80;95.80;;;;;;21089191;28;20405;-62
2022/01/17 07:13:07;;;;;;;15.63;10.53;;;5.90;95.90;;;;;;21087351;28;20523;-62
2022/01/17 07:23:11;;;;;;;16.43;9.63;;;;;;;;;;21083082;28;20235;-63
2022/01/17 07:33:13;;;;;;;13.37;8.80;;;6.00;95.80;;;;;;21083845;28;20242;-62
2022/01/17 07:43:15;;;;;;;14.73;9.20;;;6.00;95.60;;;;;;21085487;28;20203;-63
2022/01/17 07:53:17;;;;;;;18.37;10.10;;;6.00;95.70;;;;;;21085002;28;20242;-65
2022/01/17 08:03:18;;;;;;;15.67;9.90;;;6.00;95.60;;;;;;21081474;28;20231;-61
2022/01/17 08:13:20;;;;;;;15.90;9.87;;;6.00;95.60;;;;;;21082678;28;20227;-63
2022/01/17 08:23:25;;;;;;;19.20;9.63;;;6.00;95.90;;;;;;21082220;28;20196;-62
2022/01/17 08:33:26;;;;;;;15.80;9.23;;;6.20;95.40;;;;;;21081272;28;20228;-60
2022/01/17 08:43:28;;;;;;;12.90;8.33;;;6.40;95.30;;;;;;21080430;28;20204;-62
2022/01/17 08:53:34;;;;;;;11.13;7.23;;;6.40;94.90;;;;;;21078965;28;20239;-64
2022/01/17 09:03:36;;;;;;;13.37;7.80;;;6.40;94.90;;;;;;21079563;28;20249;-63
2022/01/17 09:13:38;;;;;;;13.47;7.90;;;6.40;94.60;;;;;;21078202;28;20670;-62
2022/01/17 09:23:40;;;;;;;13.60;7.30;;;6.50;94.80;;;;;;21075704;28;20213;-61
2022/01/17 09:33:42;;;;;;;9.03;5.93;;;6.50;94.50;;;;;;21075571;28;20293;-62
2022/01/17 09:43:44;;;;;;;9.23;6.20;;;6.50;94.10;;;;;;21077253;28;20200;-62
2022/01/17 09:53:51;;;;;;;10.23;6.33;;;6.50;94.00;;;;;;21078212;28;20246;-62
2022/01/17 10:03:56;;;;;;;9.87;6.03;;;6.50;94.00;;;;;;21076820;28;20614;-63
2022/01/17 10:13:58;;;;;;;9.93;6.03;;;6.60;93.70;;;;;;21075427;28;20247;-64
2022/01/17 10:24:53;;;;;;;14.10;5.97;;;6.60;93.60;;;;;;21081902;28;20654;-64
2022/01/17 10:34:56;;;;;;;8.67;5.80;;;6.70;93.80;;;;;;21089156;28;20251;-64
2022/01/17 10:45:05;;;;;;;8.87;5.57;;;6.70;93.50;;;;;;21091204;28;20208;-62
2022/01/17 10:55:13;;;;;;;8.37;5.60;;;;;;;;;;21089819;28;20321;-61
2022/01/17 11:05:17;;;;;;;9.20;5.40;;;6.80;93.10;;;;;;21087683;28;20296;-63
2022/01/17 11:15:21;;;;;;;9.37;5.33;;;6.90;92.90;;;;;;21090403;28;20233;-62
2022/01/17 11:25:26;;;;;;;9.53;5.80;;;6.90;92.80;;;;;;21080843;28;20659;-62
2022/01/17 11:35:27;;;;;;;10.10;5.70;;;7.00;92.70;;;;;;21085134;28;20242;-65
2022/01/17 11:45:32;;;;;;;9.13;5.20;;;6.90;92.50;;;;;;21085127;28;20273;-62
2022/01/17 11:55:40;;;;;;;8.77;4.70;;;7.10;92.40;;;;;;21084165;28;20675;-61
2022/01/17 12:05:42;;;;;;;7.37;4.70;;;;;;;;;;21082173;28;20683;-62
2022/01/17 12:15:55;;;;;;;8.13;4.57;;;7.20;91.90;;;;;;21081941;28;20233;-64
2022/01/17 12:26:30;;;;;;;6.97;4.43;;;7.30;91.80;;;;;;21081297;28;20340;-62
2022/01/17 12:36:31;;;;;;;13.60;6.37;;;7.20;91.50;;;;;;21081496;28;20287;-67
2022/01/17 12:46:34;;;;;;;10.20;5.23;;;7.20;91.60;;;;;;21079306;28;20219;-62
2022/01/17 12:56:36;;;;;;;10.17;4.60;;;7.30;91.40;;;;;;21079210;28;20246;-63
2022/01/17 13:06:40;;;;;;;8.93;4.80;;;7.30;91.60;;;;;;21077818;28;20205;-62
2022/01/17 13:16:43;;;;;;;9.77;5.37;;;7.20;91.40;;;;;;21072105;28;20675;-64
2022/01/17 13:26:57;;;;;;;9.50;5.40;;;7.20;91.80;;;;;;21072706;28;20664;-63
2022/01/17 13:37:04;;;;;;;9.23;4.93;;;7.20;91.90;;;;;;21075189;28;20251;-61
2022/01/17 13:47:26;;;;;;;9.83;5.37;;;7.30;92.10;;;;;;21078272;28;20213;-60
2022/01/17 13:57:28;;;;;;;11.77;5.37;;;7.20;92.20;;;;;;21080510;28;20269;-61
2022/01/17 14:07:44;;;;;;;10.30;6.33;;;7.20;92.40;;;;;;21092997;28;20262;-63
2022/01/17 14:17:46;;;;;;;8.90;5.83;;;7.10;92.50;;;;;;21091464;28;20263;-61
2022/01/17 14:28:06;;;;;;;11.20;6.47;;;7.10;93.00;;;;;;21091250;28;20207;-63
2022/01/17 14:38:08;;;;;;;11.17;6.77;;;7.10;93.20;;;;;;21090522;28;20244;-61
2022/01/17 14:48:17;;;;;;;9.77;6.23;;;7.10;93.50;;;;;;21088812;28;20261;-62
2022/01/17 15:08:41;;;;;;;10.13;6.67;;;7.00;93.90;;;;;;21087235;28;20211;-61
2022/01/17 15:18:42;;;;;;;15.27;8.97;;;7.00;94.00;;;;;;21086941;28;20236;-61
2022/01/17 15:33:32;;;;;;;12.43;7.03;;;7.00;94.20;;;;;;21135979;27;20538;-64
2022/01/17 15:43:34;;;;;;;13.77;8.07;;;6.90;94.80;;;;;;21149729;28;20568;-64
2022/01/17 15:53:35;;;;;;;13.53;8.07;;;6.90;95.60;;;;;;21150471;28;20203;-66
2022/01/17 16:03:37;;;;;;;12.07;7.87;;;6.80;96.10;;;;;;21149521;28;20284;-60
2022/01/17 16:13:39;;;;;;;11.97;8.13;;;6.70;96.60;;;;;;21088161;28;20204;-67
2022/01/17 16:23:41;;;;;;;11.97;7.83;;;6.60;97.20;;;;;;21084806;28;20196;-62
2022/01/17 16:33:45;;;;;;;12.93;7.80;;;6.60;97.40;;;;;;21056181;28;20238;-65
2022/01/17 16:43:52;;;;;;;14.27;8.47;;;6.60;97.50;;;;;;21007451;28;20291;-69
2022/01/17 16:53:54;;;;;;;13.03;8.13;;;6.60;97.70;;;;;;21006059;28;20540;-64
2022/01/17 17:03:56;;;;;;;17.07;9.43;;;6.70;97.90;;;;;;21004697;28;20276;-67
2022/01/17 17:13:58;;;;;;;16.23;9.77;;;6.70;98.00;;;;;;21005581;28;20772;-64
2022/01/17 17:23:59;;;;;;;15.03;9.83;;;6.70;98.00;;;;;;21002699;28;20247;-71
2022/01/17 17:34:02;;;;;;;13.67;9.80;;;6.70;98.20;;;;;;21080186;28;20203;-63
2022/01/17 17:44:05;;;;;;;18.67;10.20;;;6.70;98.30;;;;;;21083533;28;20263;-67
2022/01/17 17:54:08;;;;;;;19.37;10.73;;;6.70;98.30;;;;;;21034022;28;20204;-62
2022/01/17 18:04:52;;;;;;;18.70;10.90;;;;;;;;;;20983066;28;20576;-65
2022/01/17 18:14:53;;;;;;;17.13;12.88;;;6.70;98.30;;;;;;20978214;28;20500;-67
2022/01/17 18:24:56;;;;;;;14.70;10.17;;;6.80;98.40;;;;;;20982272;28;20556;-64
2022/01/17 18:35:00;;;;;;;16.70;10.17;;;6.80;98.50;;;;;;20980879;28;20265;-64
2022/01/17 18:45:03;;;;;;;15.40;9.77;;;6.90;98.50;;;;;;20981182;28;20541;-66
2022/01/17 18:55:09;;;;;;;16.30;8.97;;;6.90;98.50;;;;;;20978637;28;20209;-70
2022/01/17 19:05:13;;;;;;;14.90;8.93;;;6.90;98.40;;;;;;20930694;28;20218;-63
2022/01/17 19:15:15;;;;;;;18.07;11.03;;;7.00;98.40;;;;;;20866905;28;20234;-64
2022/01/17 19:25:16;;;;;;;15.63;10.33;;;7.00;98.60;;;;;;20916529;28;20207;-71
2022/01/17 19:35:19;;;;;;;15.60;10.77;;;7.10;98.70;;;;;;20837378;28;20236;-72
2022/01/17 19:45:20;;;;;;;18.80;10.43;;;7.10;98.70;;;;;;20839120;28;20238;-67
2022/01/17 19:55:22;;;;;;;16.40;10.47;;;7.20;98.70;;;;;;20835483;28;20237;-64
2022/01/17 20:05:25;;;;;;;13.43;9.23;;;7.20;99.00;;;;;;20842994;28;20811;-65
2022/01/17 20:15:26;;;;;;;12.63;9.57;;;7.20;98.70;;;;;;20880385;28;20750;-66
2022/01/17 20:25:28;;;;;;;17.33;9.83;;;7.20;98.80;;;;;;20881948;28;20218;-67
2022/01/17 20:35:30;;;;;;;13.37;9.37;;;7.20;99.10;;;;;;20884666;28;20252;-67
2022/01/17 20:45:32;;;;;;;15.97;10.20;;;7.30;98.80;;;;;;20877552;28;20225;-65
2022/01/17 20:55:34;;;;;;;19.87;9.90;;;7.20;99.00;;;;;;20916902;28;20284;-72
2022/01/17 21:05:36;;;;;;;16.03;9.90;;;7.20;99.30;;;;;;20915258;28;20210;-64
2022/01/17 21:15:38;;;;;;;15.53;10.57;;;7.30;99.00;;;;;;20883118;28;20238;-61
2022/01/17 21:25:41;;;;;;;14.87;10.37;;;7.20;99.30;;;;;;20829246;28;20206;-61
2022/01/17 21:35:43;;;;;;;18.17;11.40;;;7.20;99.30;;;;;;20830304;28;20719;-64
2022/01/17 21:45:45;;;;;;;16.07;10.83;;;7.30;99.70;;;;;;20829432;28;20232;-61
2022/01/17 21:55:47;;;;;;;19.63;11.60;;;7.20;99.50;;;;;;20858203;28;20244;-65
2022/01/17 22:05:49;;;;;;;19.73;11.47;;;7.30;99.80;;;;;;20879617;28;20263;-71
2022/01/17 22:15:58;;;;;;;20.87;11.93;;;7.50;99.90;;;;;;20904125;28;20225;-67
2022/01/17 22:25:59;;;;;;;19.57;11.60;;;7.50;99.90;;;;;;20909613;28;20219;-66
2022/01/17 22:36:02;;;;;;;19.00;11.23;;;7.40;99.80;;;;;;20911206;28;20294;-68
2022/01/17 22:46:05;;;;;;;16.30;9.43;;;7.50;99.80;;;;;;20918123;28;20665;-70
2022/01/17 22:56:07;;;;;;;19.30;10.10;;;7.40;99.70;;;;;;20925734;28;20237;-71
2022/01/17 23:06:09;;;;;;;16.93;10.53;;;7.40;99.70;;;;;;20926725;28;20666;-70
2022/01/17 23:16:14;;;;;;;22.87;12.80;;;7.30;99.60;;;;;;20909743;28;20240;-68
2022/01/17 23:26:16;;;;;;;19.57;11.63;;;7.30;99.90;;;;;;20837330;28;20204;-69
2022/01/17 23:36:18;;;;;;;22.40;12.73;;;7.30;99.90;;;;;;20840162;28;20235;-65
2022/01/17 23:46:20;;;;;;;20.93;12.23;;;7.10;99.90;;;;;;20839371;28;20222;-63
2022/01/17 23:56:28;;;;;;;20.67;12.40;;;7.20;99.90;;;;;;20838054;28;20242;-69
